sensor_id;sensor_type;location;lat;lon;timestamp;pressure;altitude;pressure_sealevel;temperature;humidity
50867;BME280;36839;51.946;21.002;2023-01-28T00:02:26;100814.39;;;-0.87;100.00
50867;BME280;36839;51.946;21.002;2023-01-28T00:05:01;100814.39;;;-0.87;100.00
50867;BME280;36839;51.946;21.002;2023-01-28T00:07:28;100817.73;;;-0.90;100.00
50867;BME280;36839;51.946;21.002;2023-01-28T00:09:55;100814.55;;;-0.93;100.00
50867;BME280;36839;51.946;21.002;2023-01-28T00:12:22;100813.96;;;-0.98;100.00
50867;BME280;36839;51.946;21.002;2023-01-28T00:14:52;100816.11;;;-1.02;100.00
50867;BME280;36839;51.946;21.002;2023-01-28T00:17:18;100815.10;;;-1.04;100.00
50867;BME280;36839;51.946;21.002;2023-01-28T00:19:45;100822.33;;;-1.05;100.00
50867;BME280;36839;51.946;21.002;2023-01-28T00:22:13;100821.88;;;-1.05;100.00
50867;BME280;36839;51.946;21.002;2023-01-28T00:24:40;100819.04;;;-1.04;100.00
50867;BME280;36839;51.946;21.002;2023-01-28T00:27:07;100826.75;;;-1.01;100.00
50867;BME280;36839;51.946;21.002;2023-01-28T00:29:38;100821.33;;;-1.01;100.00
50867;BME280;36839;51.946;21.002;2023-01-28T00:32:04;100823.06;;;-0.99;100.00
50867;BME280;36839;51.946;21.002;2023-01-28T00:34:31;100820.79;;;-0.96;100.00
50867;BME280;36839;51.946;21.002;2023-01-28T00:36:57;100820.42;;;-0.94;100.00
50867;BME280;36839;51.946;21.002;2023-01-28T00:39:25;100815.86;;;-0.92;100.00
50867;BME280;36839;51.946;21.002;2023-01-28T00:41:54;100815.96;;;-0.91;100.00
50867;BME280;36839;51.946;21.002;2023-01-28T00:44:20;100819.17;;;-0.91;100.00
50867;BME280;36839;51.946;21.002;2023-01-28T00:46:48;100812.00;;;-0.91;100.00
50867;BME280;36839;51.946;21.002;2023-01-28T00:49:17;100816.08;;;-0.92;100.00
50867;BME280;36839;51.946;21.002;2023-01-28T00:51:44;100821.88;;;-0.94;100.00
50867;BME280;36839;51.946;21.002;2023-01-28T00:54:13;100819.67;;;-0.95;100.00
50867;BME280;36839;51.946;21.002;2023-01-28T00:56:42;100819.23;;;-0.96;100.00
50867;BME280;36839;51.946;21.002;2023-01-28T00:59:10;100821.98;;;-0.96;100.00
50867;BME280;36839;51.946;21.002;2023-01-28T01:01:37;100817.88;;;-0.98;100.00
50867;BME280;36839;51.946;21.002;2023-01-28T01:04:04;100819.61;;;-1.01;100.00
50867;BME280;36839;51.946;21.002;2023-01-28T01:06:34;100820.08;;;-1.03;100.00
50867;BME280;36839;51.946;21.002;2023-01-28T01:09:03;100821.13;;;-1.04;100.00
50867;BME280;36839;51.946;21.002;2023-01-28T01:11:37;100822.84;;;-1.07;100.00
50867;BME280;36839;51.946;21.002;2023-01-28T01:14:06;100822.30;;;-1.07;100.00
50867;BME280;36839;51.946;21.002;2023-01-28T01:16:36;100814.86;;;-1.08;100.00
50867;BME280;36839;51.946;21.002;2023-01-28T01:19:10;100821.04;;;-1.10;100.00
50867;BME280;36839;51.946;21.002;2023-01-28T01:21:37;100817.09;;;-1.11;100.00
50867;BME280;36839;51.946;21.002;2023-01-28T01:24:05;100821.11;;;-1.13;100.00
50867;BME280;36839;51.946;21.002;2023-01-28T01:26:34;100820.80;;;-1.16;100.00
50867;BME280;36839;51.946;21.002;2023-01-28T01:29:04;100821.86;;;-1.17;100.00
50867;BME280;36839;51.946;21.002;2023-01-28T01:31:32;100822.02;;;-1.17;100.00
50867;BME280;36839;51.946;21.002;2023-01-28T01:34:00;100819.56;;;-1.18;100.00
50867;BME280;36839;51.946;21.002;2023-01-28T01:36:27;100816.05;;;-1.18;100.00
50867;BME280;36839;51.946;21.002;2023-01-28T01:38:54;100815.11;;;-1.20;100.00
50867;BME280;36839;51.946;21.002;2023-01-28T01:41:29;100817.92;;;-1.21;100.00
50867;BME280;36839;51.946;21.002;2023-01-28T01:46:44;100822.77;;;-1.20;100.00
50867;BME280;36839;51.946;21.002;2023-01-28T01:49:19;100823.89;;;-1.20;100.00
50867;BME280;36839;51.946;21.002;2023-01-28T01:51:50;100823.17;;;-1.20;100.00
50867;BME280;36839;51.946;21.002;2023-01-28T01:54:25;100821.02;;;-1.22;100.00
50867;BME280;36839;51.946;21.002;2023-01-28T01:56:55;100824.82;;;-1.22;100.00
50867;BME280;36839;51.946;21.002;2023-01-28T01:59:27;100827.36;;;-1.22;100.00
50867;BME280;36839;51.946;21.002;2023-01-28T02:01:55;100827.26;;;-1.21;100.00
50867;BME280;36839;51.946;21.002;2023-01-28T02:04:28;100830.71;;;-1.19;100.00
50867;BME280;36839;51.946;21.002;2023-01-28T02:06:58;100830.56;;;-1.17;100.00
50867;BME280;36839;51.946;21.002;2023-01-28T02:09:31;100829.66;;;-1.17;100.00
50867;BME280;36839;51.946;21.002;2023-01-28T02:14:33;100820.27;;;-1.17;100.00
50867;BME280;36839;51.946;21.002;2023-01-28T02:17:03;100820.92;;;-1.18;100.00
50867;BME280;36839;51.946;21.002;2023-01-28T02:20:28;100822.72;;;-1.18;100.00
50867;BME280;36839;51.946;21.002;2023-01-28T02:25:40;100819.89;;;-1.17;100.00
50867;BME280;36839;51.946;21.002;2023-01-28T02:28:22;100821.36;;;-1.17;100.00
50867;BME280;36839;51.946;21.002;2023-01-28T02:31:04;100818.69;;;-1.19;100.00
50867;BME280;36839;51.946;21.002;2023-01-28T02:39:03;100829.14;;;-1.21;100.00
50867;BME280;36839;51.946;21.002;2023-01-28T02:42:03;100824.23;;;-1.22;100.00
50867;BME280;36839;51.946;21.002;2023-01-28T02:44:38;100815.81;;;-1.22;100.00
50867;BME280;36839;51.946;21.002;2023-01-28T02:47:12;100815.06;;;-1.22;100.00
50867;BME280;36839;51.946;21.002;2023-01-28T02:50:09;100815.16;;;-1.23;100.00
50867;BME280;36839;51.946;21.002;2023-01-28T02:53:06;100822.11;;;-1.22;100.00
50867;BME280;36839;51.946;21.002;2023-01-28T02:56:05;100823.19;;;-1.24;100.00
50867;BME280;36839;51.946;21.002;2023-01-28T02:58:49;100821.09;;;-1.26;100.00
50867;BME280;36839;51.946;21.002;2023-01-28T03:01:38;100827.05;;;-1.27;100.00
50867;BME280;36839;51.946;21.002;2023-01-28T03:04:22;100830.73;;;-1.28;100.00
50867;BME280;36839;51.946;21.002;2023-01-28T03:06:56;100832.54;;;-1.28;100.00
50867;BME280;36839;51.946;21.002;2023-01-28T03:09:29;100828.20;;;-1.28;100.00
50867;BME280;36839;51.946;21.002;2023-01-28T03:12:15;100831.11;;;-1.28;100.00
50867;BME280;36839;51.946;21.002;2023-01-28T03:15:11;100832.70;;;-1.28;100.00
50867;BME280;36839;51.946;21.002;2023-01-28T03:21:11;100831.86;;;-1.28;100.00
50867;BME280;36839;51.946;21.002;2023-01-28T03:24:10;100826.15;;;-1.26;100.00
50867;BME280;36839;51.946;21.002;2023-01-28T03:30:10;100827.02;;;-1.24;100.00
50867;BME280;36839;51.946;21.002;2023-01-28T03:32:57;100828.21;;;-1.23;100.00
50867;BME280;36839;51.946;21.002;2023-01-28T03:35:45;100828.30;;;-1.24;100.00
50867;BME280;36839;51.946;21.002;2023-01-28T03:38:31;100827.11;;;-1.25;100.00
50867;BME280;36839;51.946;21.002;2023-01-28T03:41:01;100821.76;;;-1.27;100.00
50867;BME280;36839;51.946;21.002;2023-01-28T03:43:29;100825.48;;;-1.28;100.00
50867;BME280;36839;51.946;21.002;2023-01-28T03:45:56;100824.11;;;-1.28;100.00
50867;BME280;36839;51.946;21.002;2023-01-28T03:48:25;100829.05;;;-1.29;100.00
50867;BME280;36839;51.946;21.002;2023-01-28T03:50:55;100828.02;;;-1.31;100.00
50867;BME280;36839;51.946;21.002;2023-01-28T03:53:22;100828.59;;;-1.30;100.00
50867;BME280;36839;51.946;21.002;2023-01-28T03:55:59;100826.68;;;-1.29;100.00
50867;BME280;36839;51.946;21.002;2023-01-28T03:58:26;100824.98;;;-1.30;100.00
50867;BME280;36839;51.946;21.002;2023-01-28T04:01:13;100825.91;;;-1.30;100.00
50867;BME280;36839;51.946;21.002;2023-01-28T04:03:49;100831.08;;;-1.28;100.00
50867;BME280;36839;51.946;21.002;2023-01-28T04:06:18;100835.02;;;-1.26;100.00
50867;BME280;36839;51.946;21.002;2023-01-28T04:08:46;100839.80;;;-1.26;100.00
50867;BME280;36839;51.946;21.002;2023-01-28T04:11:19;100839.30;;;-1.27;100.00
50867;BME280;36839;51.946;21.002;2023-01-28T04:13:47;100837.56;;;-1.26;100.00
50867;BME280;36839;51.946;21.002;2023-01-28T04:16:15;100835.83;;;-1.25;100.00
50867;BME280;36839;51.946;21.002;2023-01-28T04:18:43;100836.91;;;-1.25;100.00
50867;BME280;36839;51.946;21.002;2023-01-28T04:21:12;100836.20;;;-1.25;100.00
50867;BME280;36839;51.946;21.002;2023-01-28T04:23:39;100832.03;;;-1.24;100.00
50867;BME280;36839;51.946;21.002;2023-01-28T04:26:08;100831.02;;;-1.23;100.00
50867;BME280;36839;51.946;21.002;2023-01-28T04:28:34;100828.21;;;-1.22;100.00
50867;BME280;36839;51.946;21.002;2023-01-28T04:31:01;100825.69;;;-1.20;100.00
50867;BME280;36839;51.946;21.002;2023-01-28T04:33:28;100827.72;;;-1.21;100.00
50867;BME280;36839;51.946;21.002;2023-01-28T04:35:56;100829.07;;;-1.20;100.00
50867;BME280;36839;51.946;21.002;2023-01-28T04:38:25;100829.23;;;-1.20;100.00
50867;BME280;36839;51.946;21.002;2023-01-28T04:40:52;100826.70;;;-1.20;100.00
50867;BME280;36839;51.946;21.002;2023-01-28T04:43:19;100825.70;;;-1.22;100.00
50867;BME280;36839;51.946;21.002;2023-01-28T04:45:50;100827.44;;;-1.23;100.00
50867;BME280;36839;51.946;21.002;2023-01-28T04:48:19;100829.19;;;-1.24;100.00
50867;BME280;36839;51.946;21.002;2023-01-28T04:50:46;100836.05;;;-1.24;100.00
50867;BME280;36839;51.946;21.002;2023-01-28T04:53:15;100836.28;;;-1.26;100.00
50867;BME280;36839;51.946;21.002;2023-01-28T04:55:44;100838.22;;;-1.27;100.00
50867;BME280;36839;51.946;21.002;2023-01-28T04:58:13;100836.19;;;-1.28;100.00
50867;BME280;36839;51.946;21.002;2023-01-28T05:00:41;100838.20;;;-1.28;100.00
50867;BME280;36839;51.946;21.002;2023-01-28T05:03:08;100836.02;;;-1.27;100.00
50867;BME280;36839;51.946;21.002;2023-01-28T05:05:35;100835.66;;;-1.25;100.00
50867;BME280;36839;51.946;21.002;2023-01-28T05:08:01;100839.19;;;-1.26;100.00
50867;BME280;36839;51.946;21.002;2023-01-28T05:10:28;100838.10;;;-1.26;100.00
50867;BME280;36839;51.946;21.002;2023-01-28T05:12:54;100843.82;;;-1.25;100.00
50867;BME280;36839;51.946;21.002;2023-01-28T05:15:21;100843.52;;;-1.26;100.00
50867;BME280;36839;51.946;21.002;2023-01-28T05:17:48;100841.73;;;-1.26;100.00
50867;BME280;36839;51.946;21.002;2023-01-28T05:20:16;100840.61;;;-1.26;100.00
50867;BME280;36839;51.946;21.002;2023-01-28T05:22:43;100842.34;;;-1.25;100.00
50867;BME280;36839;51.946;21.002;2023-01-28T05:25:12;100843.67;;;-1.24;100.00
50867;BME280;36839;51.946;21.002;2023-01-28T05:27:41;100847.35;;;-1.25;100.00
50867;BME280;36839;51.946;21.002;2023-01-28T05:30:14;100845.83;;;-1.26;100.00
50867;BME280;36839;51.946;21.002;2023-01-28T05:32:43;100852.52;;;-1.24;100.00
50867;BME280;36839;51.946;21.002;2023-01-28T05:35:09;100845.73;;;-1.25;100.00
50867;BME280;36839;51.946;21.002;2023-01-28T05:37:35;100849.45;;;-1.26;100.00
50867;BME280;36839;51.946;21.002;2023-01-28T05:40:03;100853.85;;;-1.25;100.00
50867;BME280;36839;51.946;21.002;2023-01-28T05:42:37;100850.33;;;-1.26;100.00
50867;BME280;36839;51.946;21.002;2023-01-28T05:45:04;100850.11;;;-1.25;100.00
50867;BME280;36839;51.946;21.002;2023-01-28T05:47:32;100857.67;;;-1.25;100.00
50867;BME280;36839;51.946;21.002;2023-01-28T05:49:59;100862.69;;;-1.25;100.00
50867;BME280;36839;51.946;21.002;2023-01-28T05:52:27;100859.65;;;-1.23;100.00
50867;BME280;36839;51.946;21.002;2023-01-28T05:54:57;100861.12;;;-1.21;100.00
50867;BME280;36839;51.946;21.002;2023-01-28T05:57:25;100860.12;;;-1.18;100.00
50867;BME280;36839;51.946;21.002;2023-01-28T05:59:53;100854.21;;;-1.17;100.00
50867;BME280;36839;51.946;21.002;2023-01-28T06:02:19;100851.39;;;-1.15;100.00
50867;BME280;36839;51.946;21.002;2023-01-28T06:04:45;100857.52;;;-1.12;100.00
50867;BME280;36839;51.946;21.002;2023-01-28T06:07:15;100859.94;;;-1.10;100.00
50867;BME280;36839;51.946;21.002;2023-01-28T06:09:48;100859.52;;;-1.08;100.00
50867;BME280;36839;51.946;21.002;2023-01-28T06:12:15;100859.82;;;-1.07;100.00
50867;BME280;36839;51.946;21.002;2023-01-28T06:14:45;100859.88;;;-1.06;100.00
50867;BME280;36839;51.946;21.002;2023-01-28T06:17:19;100863.19;;;-1.02;100.00
50867;BME280;36839;51.946;21.002;2023-01-28T06:19:46;100862.04;;;-0.99;100.00
50867;BME280;36839;51.946;21.002;2023-01-28T06:22:15;100861.14;;;-0.98;100.00
50867;BME280;36839;51.946;21.002;2023-01-28T06:24:42;100863.73;;;-0.97;100.00
50867;BME280;36839;51.946;21.002;2023-01-28T06:27:15;100867.90;;;-0.93;100.00
50867;BME280;36839;51.946;21.002;2023-01-28T06:29:43;100868.41;;;-0.93;100.00
50867;BME280;36839;51.946;21.002;2023-01-28T06:32:11;100869.09;;;-0.94;100.00
50867;BME280;36839;51.946;21.002;2023-01-28T06:34:40;100869.23;;;-0.96;100.00
50867;BME280;36839;51.946;21.002;2023-01-28T06:37:13;100875.63;;;-0.96;100.00
50867;BME280;36839;51.946;21.002;2023-01-28T06:39:41;100872.38;;;-0.96;100.00
50867;BME280;36839;51.946;21.002;2023-01-28T06:42:08;100876.38;;;-0.96;100.00
50867;BME280;36839;51.946;21.002;2023-01-28T06:44:36;100882.41;;;-0.97;100.00
50867;BME280;36839;51.946;21.002;2023-01-28T06:47:03;100890.17;;;-0.97;100.00
50867;BME280;36839;51.946;21.002;2023-01-28T06:49:34;100888.88;;;-0.98;100.00
50867;BME280;36839;51.946;21.002;2023-01-28T06:52:01;100890.80;;;-0.97;100.00
50867;BME280;36839;51.946;21.002;2023-01-28T06:54:32;100892.01;;;-0.97;100.00
50867;BME280;36839;51.946;21.002;2023-01-28T06:56:59;100898.67;;;-0.95;100.00
50867;BME280;36839;51.946;21.002;2023-01-28T06:59:26;100910.31;;;-0.94;100.00
50867;BME280;36839;51.946;21.002;2023-01-28T07:01:53;100907.35;;;-0.95;100.00
50867;BME280;36839;51.946;21.002;2023-01-28T07:04:23;100910.04;;;-0.97;100.00
50867;BME280;36839;51.946;21.002;2023-01-28T07:06:52;100909.72;;;-0.95;100.00
50867;BME280;36839;51.946;21.002;2023-01-28T07:09:19;100904.52;;;-0.94;100.00
50867;BME280;36839;51.946;21.002;2023-01-28T07:11:48;100909.29;;;-0.95;100.00
50867;BME280;36839;51.946;21.002;2023-01-28T07:14:16;100909.36;;;-0.94;100.00
50867;BME280;36839;51.946;21.002;2023-01-28T07:16:43;100910.52;;;-0.94;100.00
50867;BME280;36839;51.946;21.002;2023-01-28T07:19:10;100910.10;;;-0.94;100.00
50867;BME280;36839;51.946;21.002;2023-01-28T07:21:37;100917.73;;;-0.93;100.00
50867;BME280;36839;51.946;21.002;2023-01-28T07:24:07;100915.30;;;-0.93;100.00
50867;BME280;36839;51.946;21.002;2023-01-28T07:26:34;100911.73;;;-0.93;100.00
50867;BME280;36839;51.946;21.002;2023-01-28T07:29:00;100913.32;;;-0.92;100.00
50867;BME280;36839;51.946;21.002;2023-01-28T07:31:27;100916.40;;;-0.89;100.00
50867;BME280;36839;51.946;21.002;2023-01-28T07:33:58;100912.29;;;-0.89;100.00
50867;BME280;36839;51.946;21.002;2023-01-28T07:36:27;100911.77;;;-0.87;100.00
50867;BME280;36839;51.946;21.002;2023-01-28T07:38:58;100916.11;;;-0.87;100.00
50867;BME280;36839;51.946;21.002;2023-01-28T07:41:26;100913.13;;;-0.86;100.00
50867;BME280;36839;51.946;21.002;2023-01-28T07:44:06;100914.23;;;-0.83;100.00
50867;BME280;36839;51.946;21.002;2023-01-28T07:46:33;100913.67;;;-0.82;100.00
50867;BME280;36839;51.946;21.002;2023-01-28T07:49:01;100914.17;;;-0.82;100.00
50867;BME280;36839;51.946;21.002;2023-01-28T07:51:30;100918.55;;;-0.83;100.00
50867;BME280;36839;51.946;21.002;2023-01-28T07:53:58;100920.70;;;-0.81;100.00
50867;BME280;36839;51.946;21.002;2023-01-28T07:56:26;100922.30;;;-0.79;100.00
50867;BME280;36839;51.946;21.002;2023-01-28T07:58:59;100919.84;;;-0.77;100.00
50867;BME280;36839;51.946;21.002;2023-01-28T08:01:26;100918.16;;;-0.75;100.00
50867;BME280;36839;51.946;21.002;2023-01-28T08:03:54;100916.08;;;-0.76;100.00
50867;BME280;36839;51.946;21.002;2023-01-28T08:06:21;100917.27;;;-0.75;100.00
50867;BME280;36839;51.946;21.002;2023-01-28T08:08:50;100921.96;;;-0.75;100.00
50867;BME280;36839;51.946;21.002;2023-01-28T08:11:17;100924.73;;;-0.74;100.00
50867;BME280;36839;51.946;21.002;2023-01-28T08:13:47;100924.94;;;-0.71;100.00
50867;BME280;36839;51.946;21.002;2023-01-28T08:16:15;100920.98;;;-0.71;100.00
50867;BME280;36839;51.946;21.002;2023-01-28T08:18:44;100921.06;;;-0.70;100.00
50867;BME280;36839;51.946;21.002;2023-01-28T08:21:11;100924.48;;;-0.69;100.00
50867;BME280;36839;51.946;21.002;2023-01-28T08:23:38;100919.77;;;-0.69;100.00
50867;BME280;36839;51.946;21.002;2023-01-28T08:26:05;100923.17;;;-0.67;100.00
50867;BME280;36839;51.946;21.002;2023-01-28T08:28:32;100919.79;;;-0.66;100.00
50867;BME280;36839;51.946;21.002;2023-01-28T08:30:59;100924.52;;;-0.66;100.00
50867;BME280;36839;51.946;21.002;2023-01-28T08:33:28;100917.89;;;-0.65;100.00
50867;BME280;36839;51.946;21.002;2023-01-28T08:36:01;100920.32;;;-0.64;100.00
50867;BME280;36839;51.946;21.002;2023-01-28T08:38:37;100923.32;;;-0.62;100.00
50867;BME280;36839;51.946;21.002;2023-01-28T08:41:04;100923.07;;;-0.62;100.00
50867;BME280;36839;51.946;21.002;2023-01-28T08:43:32;100924.70;;;-0.59;100.00
50867;BME280;36839;51.946;21.002;2023-01-28T08:45:58;100926.45;;;-0.56;100.00
50867;BME280;36839;51.946;21.002;2023-01-28T08:48:27;100924.13;;;-0.55;100.00
50867;BME280;36839;51.946;21.002;2023-01-28T08:50:59;100922.40;;;-0.52;100.00
50867;BME280;36839;51.946;21.002;2023-01-28T08:53:29;100922.32;;;-0.49;100.00
50867;BME280;36839;51.946;21.002;2023-01-28T08:55:56;100923.17;;;-0.51;100.00
50867;BME280;36839;51.946;21.002;2023-01-28T08:58:22;100917.23;;;-0.55;100.00
50867;BME280;36839;51.946;21.002;2023-01-28T09:00:51;100921.35;;;-0.56;100.00
50867;BME280;36839;51.946;21.002;2023-01-28T09:03:22;100921.70;;;-0.54;100.00
50867;BME280;36839;51.946;21.002;2023-01-28T09:05:48;100929.58;;;-0.53;100.00
50867;BME280;36839;51.946;21.002;2023-01-28T09:08:15;100927.80;;;-0.49;100.00
50867;BME280;36839;51.946;21.002;2023-01-28T09:10:42;100929.48;;;-0.06;100.00
50867;BME280;36839;51.946;21.002;2023-01-28T09:13:11;100933.05;;;-0.19;100.00
50867;BME280;36839;51.946;21.002;2023-01-28T09:15:42;100936.63;;;-0.28;100.00
50867;BME280;36839;51.946;21.002;2023-01-28T09:18:10;100934.05;;;-0.31;100.00
50867;BME280;36839;51.946;21.002;2023-01-28T09:20:39;100935.19;;;-0.31;100.00
50867;BME280;36839;51.946;21.002;2023-01-28T09:23:06;100932.35;;;-0.30;100.00
50867;BME280;36839;51.946;21.002;2023-01-28T09:25:41;100940.83;;;-0.36;100.00
50867;BME280;36839;51.946;21.002;2023-01-28T09:28:11;100942.48;;;-0.37;100.00
50867;BME280;36839;51.946;21.002;2023-01-28T09:30:37;100946.99;;;-0.37;100.00
50867;BME280;36839;51.946;21.002;2023-01-28T09:33:06;100947.08;;;-0.38;100.00
50867;BME280;36839;51.946;21.002;2023-01-28T09:35:34;100946.53;;;-0.38;100.00
50867;BME280;36839;51.946;21.002;2023-01-28T09:38:02;100947.69;;;-0.39;100.00
50867;BME280;36839;51.946;21.002;2023-01-28T09:40:35;100945.16;;;-0.39;100.00
50867;BME280;36839;51.946;21.002;2023-01-28T09:48:17;100946.99;;;-0.40;100.00
50867;BME280;36839;51.946;21.002;2023-01-28T09:50:47;100944.88;;;-0.39;100.00
50867;BME280;36839;51.946;21.002;2023-01-28T09:53:21;100943.83;;;-0.43;100.00
50867;BME280;36839;51.946;21.002;2023-01-28T09:56:04;100944.60;;;-0.42;100.00
50867;BME280;36839;51.946;21.002;2023-01-28T09:58:36;100951.58;;;-0.41;100.00
50867;BME280;36839;51.946;21.002;2023-01-28T10:07:41;100939.89;;;-0.39;100.00
50867;BME280;36839;51.946;21.002;2023-01-28T10:13:02;100937.43;;;-0.34;100.00
50867;BME280;36839;51.946;21.002;2023-01-28T10:18:45;100929.30;;;-0.24;100.00
50867;BME280;36839;51.946;21.002;2023-01-28T10:21:38;100930.15;;;-0.05;100.00
50867;BME280;36839;51.946;21.002;2023-01-28T10:24:40;100925.53;;;-0.02;100.00
50867;BME280;36839;51.946;21.002;2023-01-28T10:27:29;100923.20;;;-0.06;100.00
50867;BME280;36839;51.946;21.002;2023-01-28T10:30:01;100920.65;;;0.09;100.00
50867;BME280;36839;51.946;21.002;2023-01-28T10:32:52;100919.86;;;0.04;100.00
50867;BME280;36839;51.946;21.002;2023-01-28T10:35:22;100919.52;;;0.00;100.00
50867;BME280;36839;51.946;21.002;2023-01-28T10:38:01;100917.84;;;0.14;100.00
50867;BME280;36839;51.946;21.002;2023-01-28T10:40:33;100914.36;;;0.85;100.00
50867;BME280;36839;51.946;21.002;2023-01-28T10:43:02;100914.25;;;0.79;100.00
50867;BME280;36839;51.946;21.002;2023-01-28T10:45:40;100916.09;;;0.67;100.00
50867;BME280;36839;51.946;21.002;2023-01-28T10:48:20;100913.23;;;0.53;100.00
50867;BME280;36839;51.946;21.002;2023-01-28T10:50:57;100906.91;;;0.37;100.00
50867;BME280;36839;51.946;21.002;2023-01-28T10:53:39;100907.79;;;0.26;100.00
50867;BME280;36839;51.946;21.002;2023-01-28T10:56:30;100903.71;;;0.19;100.00
50867;BME280;36839;51.946;21.002;2023-01-28T10:59:04;100904.98;;;0.07;100.00
50867;BME280;36839;51.946;21.002;2023-01-28T11:01:40;100904.88;;;0.02;100.00
50867;BME280;36839;51.946;21.002;2023-01-28T11:04:25;100902.66;;;0.02;100.00
50867;BME280;36839;51.946;21.002;2023-01-28T11:07:16;100902.96;;;-0.02;100.00
50867;BME280;36839;51.946;21.002;2023-01-28T11:09:47;100899.95;;;-0.08;100.00
50867;BME280;36839;51.946;21.002;2023-01-28T11:12:21;100902.99;;;-0.16;100.00
50867;BME280;36839;51.946;21.002;2023-01-28T11:15:04;100899.52;;;-0.18;100.00
50867;BME280;36839;51.946;21.002;2023-01-28T11:17:38;100897.14;;;-0.17;100.00
50867;BME280;36839;51.946;21.002;2023-01-28T11:20:19;100894.44;;;-0.18;100.00
50867;BME280;36839;51.946;21.002;2023-01-28T11:22:50;100893.29;;;-0.09;100.00
50867;BME280;36839;51.946;21.002;2023-01-28T11:25:36;100896.66;;;-0.12;100.00
50867;BME280;36839;51.946;21.002;2023-01-28T11:28:16;100889.31;;;-0.15;100.00
50867;BME280;36839;51.946;21.002;2023-01-28T11:30:51;100889.09;;;-0.16;100.00
50867;BME280;36839;51.946;21.002;2023-01-28T11:33:31;100889.41;;;-0.19;100.00
50867;BME280;36839;51.946;21.002;2023-01-28T11:38:54;100887.23;;;-0.24;100.00
50867;BME280;36839;51.946;21.002;2023-01-28T11:41:32;100886.38;;;-0.29;100.00
50867;BME280;36839;51.946;21.002;2023-01-28T11:44:17;100883.42;;;-0.26;100.00
50867;BME280;36839;51.946;21.002;2023-01-28T11:58:20;100883.67;;;-0.32;100.00
50867;BME280;36839;51.946;21.002;2023-01-28T12:01:11;100878.89;;;-0.40;100.00
50867;BME280;36839;51.946;21.002;2023-01-28T12:04:21;100875.19;;;-0.46;100.00
50867;BME280;36839;51.946;21.002;2023-01-28T12:10:30;100877.59;;;-0.51;100.00
50867;BME280;36839;51.946;21.002;2023-01-28T12:16:59;100877.23;;;-0.53;100.00
50867;BME280;36839;51.946;21.002;2023-01-28T12:23:10;100869.29;;;-0.56;100.00
50867;BME280;36839;51.946;21.002;2023-01-28T12:26:04;100871.87;;;-0.57;100.00
50867;BME280;36839;51.946;21.002;2023-01-28T12:31:59;100865.97;;;-0.57;100.00
50867;BME280;36839;51.946;21.002;2023-01-28T12:38:14;100869.27;;;-0.56;100.00
50867;BME280;36839;51.946;21.002;2023-01-28T12:41:07;100871.19;;;-0.55;100.00
50867;BME280;36839;51.946;21.002;2023-01-28T12:43:59;100873.00;;;-0.54;100.00
50867;BME280;36839;51.946;21.002;2023-01-28T12:47:06;100870.59;;;-0.53;100.00
50867;BME280;36839;51.946;21.002;2023-01-28T12:49:44;100870.63;;;-0.51;100.00
50867;BME280;36839;51.946;21.002;2023-01-28T12:52:21;100871.88;;;-0.50;100.00
50867;BME280;36839;51.946;21.002;2023-01-28T12:55:16;100867.19;;;-0.52;100.00
50867;BME280;36839;51.946;21.002;2023-01-28T12:57:44;100869.64;;;-0.53;100.00
50867;BME280;36839;51.946;21.002;2023-01-28T13:00:27;100872.40;;;-0.52;100.00
50867;BME280;36839;51.946;21.002;2023-01-28T13:06:12;100873.35;;;-0.52;100.00
50867;BME280;36839;51.946;21.002;2023-01-28T13:08:41;100873.24;;;-0.51;100.00
50867;BME280;36839;51.946;21.002;2023-01-28T13:11:10;100878.00;;;-0.56;100.00
50867;BME280;36839;51.946;21.002;2023-01-28T13:13:41;100875.08;;;-0.61;100.00
50867;BME280;36839;51.946;21.002;2023-01-28T13:16:12;100880.11;;;-0.62;100.00
50867;BME280;36839;51.946;21.002;2023-01-28T13:26:43;100879.77;;;-0.61;100.00
50867;BME280;36839;51.946;21.002;2023-01-28T13:32:02;100871.99;;;-0.64;100.00
50867;BME280;36839;51.946;21.002;2023-01-28T13:34:58;100879.39;;;-0.63;100.00
50867;BME280;36839;51.946;21.002;2023-01-28T13:37:33;100876.52;;;-0.62;100.00
50867;BME280;36839;51.946;21.002;2023-01-28T13:40:21;100878.77;;;-0.63;100.00
50867;BME280;36839;51.946;21.002;2023-01-28T13:42:59;100885.05;;;-0.64;100.00
50867;BME280;36839;51.946;21.002;2023-01-28T13:45:26;100881.27;;;-0.66;100.00
50867;BME280;36839;51.946;21.002;2023-01-28T13:51:30;100892.50;;;-0.69;100.00
50867;BME280;36839;51.946;21.002;2023-01-28T14:00:14;100897.60;;;-0.65;100.00
50867;BME280;36839;51.946;21.002;2023-01-28T14:11:27;100890.72;;;-0.71;100.00
50867;BME280;36839;51.946;21.002;2023-01-28T14:14:14;100892.13;;;-0.69;100.00
50867;BME280;36839;51.946;21.002;2023-01-28T14:16:55;100892.65;;;-0.70;100.00
50867;BME280;36839;51.946;21.002;2023-01-28T14:19:30;100888.42;;;-0.68;100.00
50867;BME280;36839;51.946;21.002;2023-01-28T14:21:58;100887.75;;;-0.69;100.00
50867;BME280;36839;51.946;21.002;2023-01-28T14:24:25;100888.83;;;-0.72;100.00
50867;BME280;36839;51.946;21.002;2023-01-28T14:27:21;100886.34;;;-0.73;100.00
50867;BME280;36839;51.946;21.002;2023-01-28T14:32:32;100890.96;;;-0.68;100.00
50867;BME280;36839;51.946;21.002;2023-01-28T14:35:07;100890.44;;;-0.70;100.00
50867;BME280;36839;51.946;21.002;2023-01-28T14:37:37;100891.88;;;-0.65;100.00
50867;BME280;36839;51.946;21.002;2023-01-28T14:40:10;100891.84;;;-0.67;100.00
50867;BME280;36839;51.946;21.002;2023-01-28T14:42:58;100889.84;;;-0.67;100.00
50867;BME280;36839;51.946;21.002;2023-01-28T14:46:20;100888.66;;;-0.66;100.00